Season Statistics

Houston

Game-by-Game Statistics

Team Game-by-Game
Opponent Game-by-Game
Points-Rebounds-Assists
Individual Game-by-Game

  Team Game-by-Game  

   TOTAL  3-PTRS     REBOUNDS     POINTS 
Opponent  Date  Score  w/l  fgm-fga  pct  3fg-fga  pct  ftm-fta  pct  off  def  tot  avg  pf  ast  t/o  blk  stl  pts  avg 
MCNEESE   11/10/17  81-53   29-51  .569  10-21  .476  13-21  .619  12  34  46   46.0  22  20  17  81   81.0 
vs Drexel   11/17/17  80-84   31-72  .431  7-26  .269  11-22  .500  20  24  44   45.0  24  14  80   80.5 
at Liberty   11/18/17  68-66   23-57  .404  6-24  .250  16-19  .842  12  28  40   43.3  20  10  11  68   76.3 
vs Wake Forest   11/19/17  78-73   30-64  .469  9-20  .450  9-17  .529  15  23  38   42.0  25  23  10  78   76.8 
UIW   11/25/17  97-58   36-68  .529  10-18  .556  15-24  .625  17  29  46   42.8  19  19  15  11  97   80.8 
NEW ORLEANS   11/29/17  75-66   25-50  .500  7-18  .389  18-23  .783  23  30   40.7  19  13  18  11  75   79.8 
ARKANSAS   12/2/17   91-65   29-56  .518  10-21  .476  23-28  .821  30  38   40.3  26  19  12  91   81.4 
FAIRFIELD   12/6/17   88-66   32-58  .552  11-16  .688  13-19  .684  10  30  40   40.2  19  16  18  88   82.2 
at Saint Louis   12/9/17   77-58   22-48  .458  4-13  .308  29-35  .829  28  37   39.9  24  16  77   81.7 
at LSU   12/13/17  77-80   28-63  .444  11-29  .379  10-14  .714  10  23  33   39.2  21  14  11  77   81.2 
PRAIRIE VIEW A&M   12/17/17  92-72   29-53  .547  12-23  .522  22-30  .733  12  27  39   39.2  19  20  19  92   82.2 
vs Providence   12/20/17  70-59   24-57  .421  7-20  .350  15-22  .682  11  31  42   39.4  19  12  10  70   81.2 
at USF   12/28/17  79-60   28-62  .452  9-28  .321  14-16  .875  11  32  43   39.7  19  13  11  79   81.0 
TEMPLE   12/30/17  76-73   29-61  .475  4-15  .267  14-18  .778  14  28  42   39.9  14  11  76   80.6 
at Wichita State   1/4/18   63-81   23-56  .411  4-15  .267  13-19  .684  11  25  36   39.6  24  15  63   79.5 
TULSA   1/11/18   104-71   37-67  .552  18-34  .529  12-19  .632  11  28  39   39.6  27  20  11  104   81.0 
at ECU   1/14/18   65-49   26-66  .394  9-22  .409  4-4  1.000  15  25  40   39.6  15  21  10  65   80.1 
at Tulane   1/17/18   72-81   24-69  .348  8-30  .267  16-22  .727  16  25  41   39.7  26  13  11  72   79.6 
WICHITA STATE   1/20/18   73-59   26-60  .433  5-20  .250  16-21  .762  29  37   39.5  24  11  10  73   79.3 
 
Houston     1506     531-1138  .467  161-413  .390  283-393  .720  229  522  751   39.5  406  284  242  66  120  1506   79.3 
Opponents     1274     417-1059  .394  137-419  .327  303-426  .711  190  436  626   32.9  372  218  263  47  106  1274   67.1 
 
Games played: 19      Rebounds/game: 39.5 
Points/game: 79.3      Assists/game: 14.9 
FG Pct: 46.7      Turnovers/game: 12.7 
3FG Pct: 39.0      Assist/turnover ratio: 1.2 
FT Pct: 72.0      Steals/game: 6.3 
       Blocks/game: 3.5 
  Opponent Game-by-Game  

   TOTAL  3-PTRS     REBOUNDS     POINTS 
Opponent  Date  Score  w/l  fgm-fga  pct  3fg-fga  pct  ftm-fta  pct  off  def  tot  avg  pf  ast  t/o  blk  stl  pts  avg 
MCNEESE   11/10/17  81-53   17-58  .293  6-27  .222  13-24  .542  14  17  31   31.0  19  13  53   53.0 
vs Drexel   11/17/17  80-84   24-51  .471  9-24  .375  27-31  .871  28  35   33.0  22  13  84   68.5 
at Liberty   11/18/17  68-66   21-52  .404  7-26  .269  17-21  .810  23  28   31.3  19  12  11  66   67.7 
vs Wake Forest   11/19/17  78-73   19-50  .380  11-26  .423  24-28  .857  11  23  34   32.0  22  10  15  73   69.0 
UIW   11/25/17  97-58   20-62  .323  6-22  .273  12-20  .600  17  18  35   32.6  20  13  22  58   66.8 
NEW ORLEANS   11/29/17  75-66   27-48  .563  4-10  .400  8-16  .500  20  24   31.2  19  12  20  66   66.7 
ARKANSAS   12/2/17   91-65   19-55  .345  6-19  .316  21-30  .700  21  29   30.9  19  13  65   66.4 
FAIRFIELD   12/6/17   88-66   25-61  .410  7-25  .280  9-14  .643  19  28   30.5  24  16  66   66.4 
at Saint Louis   12/9/17   77-58   16-44  .364  6-16  .375  20-29  .690  20  24   29.8  27  12  16  58   65.4 
at LSU   12/13/17  77-80   28-61  .459  7-21  .333  17-20  .850  12  26  38   30.6  17  10  11  80   66.9 
PRAIRIE VIEW A&M   12/17/17  92-72   26-61  .426  10-30  .333  10-16  .625  12  17  29   30.5  27  14  15  10  72   67.4 
vs Providence   12/20/17  70-59   20-54  .370  6-21  .286  13-21  .619  26  35   30.8  18  14  12  59   66.7 
at USF   12/28/17  79-60   18-57  .316  7-16  .438  17-22  .773  11  24  35   31.2  15  11  13  60   66.2 
TEMPLE   12/30/17  76-73   27-60  .450  8-26  .308  11-13  .846  20  27   30.9  19  15  73   66.6 
at Wichita State   1/4/18   63-81   26-58  .448  12-27  .444  17-22  .773  26  35   31.1  16  18  81   67.6 
TULSA   1/11/18   104-71   22-56  .393  5-19  .263  22-30  .733  10  22  32   31.2  17  11  14  71   67.8 
at ECU   1/14/18   65-49   17-57  .298  6-23  .261  9-12  .750  12  24  36   31.5  11  10  12  49   66.7 
at Tulane   1/17/18   72-81   26-56  .464  10-21  .476  19-32  .594  12  31  43   32.1  21  14  13  81   67.5 
WICHITA STATE   1/20/18   73-59   19-58  .328  4-20  .200  17-25  .680  17  31  48   32.9  20  11  18  59   67.1 
 
Opponents     1274     417-1059  .394  137-419  .327  303-426  .711  190  436  626   32.9  372  218  263  47  106  1274   67.1 
Houston     1506     531-1138  .467  161-413  .390  283-393  .720  229  522  751   39.5  406  284  242  66  120  1506   79.3 
 
Games played: 19      Rebounds/game: 32.9 
Points/game: 67.1      Assists/game: 11.5 
FG Pct: 39.4      Turnovers/game: 13.8 
3FG Pct: 32.7      Assist/turnover ratio: 0.8 
FT Pct: 71.1      Steals/game: 5.6 
       Blocks/game: 2.5 
  Points-Rebounds-Assists  

        01  02  03  05  12  13  15 
Opponent  Date  Score  WL  HARRIS JR  ADEWUNMI,  BROOKS,AR  DAVIS JR.  VANBECK,W  ZANNA,NUR  DAVIS,DEV 
MCNEESE  11/10/17  81-53  5-4-0  0-0-0  22-6-0  12-2-5  14-3-1  1-1-0  7-5-5 
vs Drexel  11/17/17  80-84  DNP  DNP  8-4-0  3-1-3  2-6-0  7-9-0  10-8-0 
at Liberty  11/18/17  68-66  DNP  DNP  0-4-0  7-3-1  18-6-2  2-1-0  12-5-1 
vs Wake Forest  11/19/17  78-73  DNP  DNP  0-1-0  2-2-3  19-4-4  6-11-1  17-10-3 
UIW  11/25/17  97-58  DNP  0-0-0  10-3-0  14-1-7  16-3-1  7-4-1  10-10-2 
NEW ORLEANS  11/29/17  75-66  DNP  DNP  9-0-0  8-4-1  10-2-1  3-3-0  6-6-1 
ARKANSAS  12/2/17  91-65  DNP  0-1-0  11-1-1  17-2-3  7-1-0  5-7-1  28-10-2 
FAIRFIELD  12/6/17  88-66  2-3-0  0-0-0  0-3-1  16-0-3  10-4-2  4-2-0  11-9-2 
at Saint Louis  12/9/17  77-58  DNP  DNP  6-2-0  7-0-1  3-3-2  2-4-1  17-4-1 
at LSU  12/13/17  77-80  5-5-0  DNP  9-3-1  20-4-2  4-1-1  0-2-0  14-7-0 
PRAIRIE VIEW A&M  12/17/17  92-72  3-2-0  0-0-0  24-4-3  15-0-2  10-3-2  0-3-0  10-7-2 
vs Providence  12/20/17  70-59  0-2-0  DNP  12-4-0  10-3-3  3-2-0  5-6-0  2-9-1 
at USF  12/28/17  79-60  0-6-0  0-0-0  14-2-0  15-2-2  6-0-4  5-5-0  10-2-1 
TEMPLE  12/30/17  76-73  2-0-0  DNP  14-5-0  9-4-3  0-0-0  2-4-0  12-3-2 
at Wichita State  1/4/18  63-81  0-3-0  DNP  4-2-0  12-2-5  11-6-0  0-3-0  7-5-0 
TULSA  1/11/18  104-71  4-5-0  1-2-0  15-4-0  14-1-5  10-4-1  0-0-0  6-8-3 
at ECU  1/14/18  65-49  0-2-1  0-0-0  2-3-0  20-4-3  5-6-3  2-5-0  4-3-1 
at Tulane  1/17/18  72-81  0-0-0  DNP  10-2-0  15-1-2  4-7-1  0-2-0  10-3-0 
WICHITA STATE  1/20/18  73-59  0-0-0  DNP  8-3-1  17-8-3  0-0-0  4-3-0  12-7-1 

        20  23  24  25  31  32  35 
Opponent  Date  Score  WL  GRANT,GAB  ALLEY JR.  BRADY,BRE  ROBINSON,  SANGOYOMI  GRAY,ROB   WHITE JR. 
MCNEESE  11/10/17  81-53  6-5-2  0-1-1  8-10-0  2-2-5  2-1-0  DNP  2-3-1 
vs Drexel  11/17/17  80-84  2-0-0  DNP  2-2-1  3-1-5  DNP  37-6-4  6-4-1 
at Liberty  11/18/17  68-66  DNP  0-0-0  6-11-0  4-3-2  DNP  19-3-3  0-2-1 
vs Wake Forest  11/19/17  78-73  DNP  DNP  4-5-1  4-0-5  DNP  23-1-4  3-0-2 
UIW  11/25/17  97-58  7-2-0  DNP  0-1-0  2-1-2  1-3-0  16-0-4  14-12-2 
NEW ORLEANS  11/29/17  75-66  0-1-0  DNP  7-5-0  3-1-0  DNP  23-0-8  6-6-2 
ARKANSAS  12/2/17  91-65  0-1-0  DNP  4-4-0  2-3-9  0-0-1  11-4-2  6-3-0 
FAIRFIELD  12/6/17  88-66  0-1-0  DNP  10-8-1  7-1-4  0-1-0  20-4-2  8-2-1 
at Saint Louis  12/9/17  77-58  3-1-0  DNP  9-6-0  6-4-0  DNP  24-6-1  0-4-0 
at LSU  12/13/17  77-80  DNP  DNP  0-1-0  5-2-2  DNP  20-3-7  0-3-1 
PRAIRIE VIEW A&M  12/17/17  92-72  2-2-0  DNP  2-4-0  9-0-6  0-0-0  11-4-4  6-5-1 
vs Providence  12/20/17  70-59  0-0-0  DNP  2-2-0  12-3-6  DNP  24-4-2  0-3-0 
at USF  12/28/17  79-60  0-1-0  DNP  6-8-0  4-7-5  0-0-0  11-2-1  8-5-0 
TEMPLE  12/30/17  76-73  0-1-0  DNP  21-9-0  0-4-3  DNP  8-7-3  8-1-0 
at Wichita State  1/4/18  63-81  2-1-0  DNP  DNP  6-2-1  3-6-1  13-0-1  5-1-1 
TULSA  1/11/18  104-71  10-2-0  DNP  DNP  6-1-2  2-3-0  34-3-8  2-0-1 
at ECU  1/14/18  65-49  3-2-1  DNP  0-4-1  0-0-2  0-0-0  12-1-9  17-6-0 
at Tulane  1/17/18  72-81  0-0-0  DNP  2-3-0  0-2-1  DNP  24-5-5  7-12-4 
WICHITA STATE  1/20/18  73-59  DNP  DNP  2-2-0  0-3-1  DNP  24-3-4  6-4-1 

  Individual Game-by-Game  

#01  HARRIS Jr., Chris  
#02  Adewunmi, Mike  
#03  Brooks, Armoni  
#05  Davis Jr., Corey  
#12  VanBeck, Wes  
#13  Zanna, Nura  
#15  Davis, Devin  
#20  Grant, Gabe  
#23  Alley Jr., Cedrick  
#24  Brady, Breaon  
#25  ROBINSON, Jr., Galen  
#31  SANGOYOMI, Valentine  
#32  Gray, Rob  
#35  White Jr., Fabian  
#TM  TEAM